Time;durP1;ratioP1;P1;durP2;ratioP2;P2;SDS_P1;SDS_P2;PMS_P1;PMS_P2;Temp;Humidity;BMP_temperature;BMP_pressure;BME280_temperature;BME280_humidity;BME280_pressure;Samples;Min_cycle;Max_cycle;Signal;HPM_P1;HPM_P2
2024/03/14 00:02:06;;;;;;;614.97;582.87;;;10.40;99.90;;;;;;5054335;28;20450;-66
2024/03/14 00:04:33;;;;;;;618.60;584.90;;;10.40;99.90;;;;;;5053767;28;20481;-66
2024/03/14 00:07:01;;;;;;;627.57;593.23;;;10.20;99.90;;;;;;5053647;28;20446;-66
2024/03/14 00:09:29;;;;;;;632.63;597.20;;;10.20;99.90;;;;;;5048312;28;20850;-67
2024/03/14 00:11:55;;;;;;;627.57;592.17;;;10.20;99.90;;;;;;5043486;28;20905;-67
2024/03/14 00:14:22;;;;;;;627.73;591.07;;;10.20;99.90;;;;;;5045382;28;20470;-66
2024/03/14 00:16:52;;;;;;;630.83;593.30;;;10.10;99.90;;;;;;5053624;28;20454;-66
2024/03/14 00:19:19;;;;;;;630.70;593.50;;;10.10;99.90;;;;;;5045859;28;20985;-66
2024/03/14 00:21:46;;;;;;;625.13;587.10;;;10.10;99.90;;;;;;5045803;28;20503;-67
2024/03/14 00:24:13;;;;;;;624.87;587.00;;;10.10;99.90;;;;;;5042637;28;20489;-66
2024/03/14 00:26:40;;;;;;;622.67;586.00;;;10.10;99.90;;;;;;5040705;28;20451;-67
2024/03/14 00:29:07;;;;;;;623.10;586.30;;;10.20;99.90;;;;;;5047774;28;20490;-67
2024/03/14 00:31:37;;;;;;;609.70;574.40;;;10.20;99.90;;;;;;5057898;28;20446;-67
2024/03/14 00:34:05;;;;;;;607.43;573.30;;;10.20;99.90;;;;;;5058258;28;20470;-67
2024/03/14 00:36:31;;;;;;;601.00;567.90;;;10.20;99.90;;;;;;5057414;28;20486;-67
2024/03/14 00:38:58;;;;;;;606.60;574.27;;;10.20;99.90;;;;;;5047629;28;20458;-65
2024/03/14 00:41:25;;;;;;;607.03;574.77;;;10.20;99.90;;;;;;5051530;28;21161;-66
2024/03/14 00:43:52;;;;;;;603.03;571.30;;;10.20;99.90;;;;;;5056827;28;20474;-66
2024/03/14 00:46:19;;;;;;;590.17;559.57;;;10.10;99.90;;;;;;5049978;28;20477;-66
2024/03/14 00:48:46;;;;;;;589.73;560.17;;;10.20;99.90;;;;;;5049105;28;20453;-67
2024/03/14 00:51:14;;;;;;;582.00;552.83;;;10.20;99.90;;;;;;5057495;28;20446;-66
2024/03/14 00:53:41;;;;;;;585.90;556.97;;;10.20;99.90;;;;;;5048964;28;20477;-66
2024/03/14 00:56:07;;;;;;;575.30;546.90;;;10.20;99.90;;;;;;5054278;28;20455;-66
2024/03/14 00:58:35;;;;;;;570.63;542.87;;;10.20;99.90;;;;;;5050925;28;21016;-66
2024/03/14 01:01:01;;;;;;;563.07;535.87;;;10.20;99.90;;;;;;5038463;28;21008;-66
2024/03/14 01:03:30;;;;;;;565.67;538.07;;;10.10;99.90;;;;;;5037218;28;20479;-66
2024/03/14 01:05:58;;;;;;;567.83;540.10;;;10.10;99.90;;;;;;5037226;28;20479;-66
2024/03/14 01:08:25;;;;;;;563.03;535.40;;;10.10;99.90;;;;;;5037272;28;20454;-66
2024/03/14 01:10:51;;;;;;;582.40;554.00;;;10.10;99.90;;;;;;5036951;28;20483;-65
2024/03/14 01:13:19;;;;;;;571.80;544.30;;;10.10;99.90;;;;;;5036909;28;20470;-66
2024/03/14 01:15:46;;;;;;;564.67;537.37;;;10.00;99.90;;;;;;5036940;28;20451;-66
2024/03/14 01:18:12;;;;;;;574.80;546.30;;;10.00;99.90;;;;;;5037154;28;20458;-66
2024/03/14 01:20:39;;;;;;;571.07;543.30;;;10.00;99.90;;;;;;5037044;28;20552;-66
2024/03/14 01:23:07;;;;;;;572.53;543.60;;;9.90;99.90;;;;;;5036546;28;21015;-66
2024/03/14 01:25:34;;;;;;;582.10;552.50;;;9.90;99.90;;;;;;5036490;28;20507;-65
2024/03/14 01:28:01;;;;;;;592.67;561.40;;;9.80;99.90;;;;;;5037010;28;20461;-66
2024/03/14 01:30:28;;;;;;;607.70;575.10;;;9.70;99.90;;;;;;5036922;28;20483;-66
2024/03/14 01:32:55;;;;;;;604.63;570.83;;;9.60;99.90;;;;;;5036750;28;20470;-66
2024/03/14 01:35:24;;;;;;;603.67;569.40;;;9.60;99.90;;;;;;5036750;28;20513;-66
2024/03/14 01:37:50;;;;;;;601.43;567.00;;;9.50;99.90;;;;;;5036541;28;20479;-66
2024/03/14 01:40:17;;;;;;;596.93;561.83;;;9.40;99.90;;;;;;5035744;28;20829;-67
2024/03/14 01:42:44;;;;;;;599.57;563.77;;;9.40;99.90;;;;;;5036737;28;20467;-66
2024/03/14 01:45:14;;;;;;;614.43;576.70;;;9.30;99.90;;;;;;5036760;28;20825;-66
2024/03/14 01:47:41;;;;;;;601.90;564.00;;;9.30;99.90;;;;;;5036690;28;20462;-66
2024/03/14 01:50:08;;;;;;;606.07;567.57;;;9.30;99.90;;;;;;5036259;28;21029;-66
2024/03/14 01:52:35;;;;;;;594.93;557.87;;;9.30;99.90;;;;;;5036126;28;20479;-66
2024/03/14 01:55:02;;;;;;;600.10;562.27;;;9.30;99.90;;;;;;5036206;28;20462;-66
2024/03/14 01:57:29;;;;;;;592.40;555.67;;;9.30;99.90;;;;;;5036254;28;20447;-66
2024/03/14 01:59:58;;;;;;;598.90;561.90;;;9.30;99.90;;;;;;5036574;28;20522;-66
2024/03/14 02:02:25;;;;;;;587.57;552.10;;;9.30;99.90;;;;;;5038740;28;20880;-66
2024/03/14 02:04:53;;;;;;;581.90;546.70;;;9.30;99.90;;;;;;5040808;28;20455;-66
2024/03/14 02:07:20;;;;;;;586.07;551.20;;;9.30;99.90;;;;;;5038046;28;20970;-66
2024/03/14 02:09:47;;;;;;;589.80;555.20;;;9.30;99.90;;;;;;5036275;28;20483;-66
2024/03/14 02:12:14;;;;;;;588.77;554.20;;;9.30;99.90;;;;;;5036192;28;20482;-66
2024/03/14 02:14:41;;;;;;;584.77;549.83;;;9.30;99.90;;;;;;5035985;28;20829;-66
2024/03/14 02:17:07;;;;;;;585.97;551.80;;;9.30;99.90;;;;;;5035630;28;20459;-66
2024/03/14 02:19:34;;;;;;;585.90;551.87;;;9.30;99.90;;;;;;5035870;28;20827;-66
2024/03/14 02:22:01;;;;;;;587.27;553.20;;;9.20;99.90;;;;;;5035594;28;20567;-66
2024/03/14 02:24:28;;;;;;;590.83;556.10;;;9.20;99.90;;;;;;5035938;28;20859;-66
2024/03/14 02:26:55;;;;;;;589.03;554.40;;;9.10;99.90;;;;;;5035494;28;20452;-66
2024/03/14 02:29:22;;;;;;;595.07;560.20;;;9.10;99.90;;;;;;5035682;28;20481;-66
2024/03/14 02:31:51;;;;;;;586.33;552.00;;;9.10;99.90;;;;;;5035563;28;20449;-66
2024/03/14 02:34:19;;;;;;;584.37;550.57;;;9.10;99.90;;;;;;5031899;28;20476;-66
2024/03/14 02:36:46;;;;;;;583.97;549.30;;;9.10;99.90;;;;;;5048151;28;20947;-66
2024/03/14 02:39:15;;;;;;;588.03;553.83;;;9.00;99.90;;;;;;5035591;28;20455;-67
2024/03/14 02:41:42;;;;;;;586.87;551.90;;;9.00;99.90;;;;;;5036125;28;20448;-66
2024/03/14 02:44:15;;;;;;;591.73;556.23;;;8.90;99.90;;;;;;5035161;28;20475;-66
2024/03/14 02:46:43;;;;;;;591.73;555.10;;;8.90;99.90;;;;;;5035070;28;20450;-66
2024/03/14 02:49:10;;;;;;;591.83;556.40;;;8.90;99.90;;;;;;5035471;28;20458;-66
2024/03/14 02:51:37;;;;;;;595.07;557.67;;;8.80;99.90;;;;;;5034344;28;20479;-66
2024/03/14 02:54:05;;;;;;;584.40;546.33;;;8.80;99.90;;;;;;5035173;28;20489;-66
2024/03/14 02:56:32;;;;;;;585.37;546.30;;;8.90;99.90;;;;;;5035172;28;20504;-66
2024/03/14 02:58:59;;;;;;;587.80;549.40;;;8.90;99.90;;;;;;5035265;28;20451;-66
2024/03/14 03:01:26;;;;;;;583.63;544.93;;;8.80;99.90;;;;;;5035219;28;20504;-66
2024/03/14 03:03:54;;;;;;;588.47;550.57;;;8.90;99.90;;;;;;5035078;28;20558;-66
2024/03/14 03:06:20;;;;;;;588.13;550.53;;;8.90;99.90;;;;;;5034932;28;20459;-66
2024/03/14 03:08:47;;;;;;;589.53;552.33;;;8.80;99.90;;;;;;5035210;28;20455;-66
2024/03/14 03:11:14;;;;;;;591.47;553.67;;;8.70;99.90;;;;;;5034811;28;20514;-66
2024/03/14 03:13:41;;;;;;;593.90;554.70;;;8.70;99.90;;;;;;5034664;28;20473;-66
2024/03/14 03:16:08;;;;;;;588.87;548.87;;;8.60;99.90;;;;;;5050683;28;20459;-67
2024/03/14 03:18:38;;;;;;;590.17;549.53;;;8.60;99.90;;;;;;5041716;28;20511;-67
2024/03/14 03:21:05;;;;;;;581.20;540.67;;;8.80;99.90;;;;;;5044525;28;20836;-66
2024/03/14 03:23:33;;;;;;;587.40;547.83;;;8.80;99.90;;;;;;5048977;28;20466;-66
2024/03/14 03:25:59;;;;;;;577.13;538.17;;;8.80;99.90;;;;;;5052432;28;20454;-66
2024/03/14 03:28:26;;;;;;;578.20;539.00;;;8.70;99.90;;;;;;5048006;28;20465;-66
2024/03/14 03:30:53;;;;;;;578.30;539.63;;;8.80;99.90;;;;;;5046242;28;20486;-66
2024/03/14 03:33:20;;;;;;;576.57;538.27;;;8.80;99.90;;;;;;5049850;28;21247;-65
2024/03/14 03:35:46;;;;;;;575.60;538.57;;;8.80;99.90;;;;;;5050672;28;20458;-66
2024/03/14 03:38:13;;;;;;;566.73;530.80;;;8.70;99.90;;;;;;5046308;28;20496;-66
2024/03/14 03:40:39;;;;;;;566.33;530.70;;;8.70;99.90;;;;;;5054374;28;20940;-66
2024/03/14 03:43:07;;;;;;;565.67;530.17;;;8.50;99.90;;;;;;5045638;28;20520;-66
2024/03/14 03:45:36;;;;;;;578.97;541.60;;;8.40;99.90;;;;;;5054878;28;20446;-63
2024/03/14 03:48:03;;;;;;;585.20;545.83;;;8.40;99.90;;;;;;5045813;28;20490;-66
2024/03/14 03:50:29;;;;;;;576.30;535.90;;;8.30;99.90;;;;;;5054438;28;20482;-66
2024/03/14 03:52:56;;;;;;;568.17;525.87;;;8.40;99.90;;;;;;5044691;28;20471;-66
2024/03/14 03:55:22;;;;;;;575.13;532.50;;;8.40;99.90;;;;;;5047358;28;20465;-66
2024/03/14 03:57:49;;;;;;;572.23;530.73;;;8.30;99.90;;;;;;5045187;28;20459;-66
2024/03/14 04:00:33;;;;;;;569.70;528.13;;;8.20;99.90;;;;;;5030642;28;20466;-65
2024/03/14 04:03:00;;;;;;;562.20;519.00;;;8.10;99.90;;;;;;5050243;28;20475;-66
2024/03/14 04:05:26;;;;;;;568.57;524.97;;;8.00;99.90;;;;;;5054099;28;20450;-66
2024/03/14 04:07:53;;;;;;;570.07;523.40;;;8.00;99.90;;;;;;5045306;28;20544;-66
2024/03/14 04:10:23;;;;;;;578.17;529.87;;;7.90;99.90;;;;;;5053687;28;20643;-66
2024/03/14 04:12:49;;;;;;;590.23;540.87;;;7.90;99.90;;;;;;5045897;28;20478;-66
2024/03/14 04:15:16;;;;;;;581.37;531.83;;;7.90;99.90;;;;;;5046451;28;20458;-66
2024/03/14 04:17:42;;;;;;;592.00;542.43;;;7.90;99.90;;;;;;5053721;28;20447;-66
2024/03/14 04:20:11;;;;;;;585.33;536.63;;;8.00;99.90;;;;;;5042449;28;20546;-66
2024/03/14 04:22:39;;;;;;;586.10;536.27;;;8.00;99.90;;;;;;5049115;28;20523;-66
2024/03/14 04:25:10;;;;;;;584.67;535.43;;;8.00;99.90;;;;;;5045832;28;20958;-66
2024/03/14 04:27:38;;;;;;;601.17;552.07;;;8.00;99.90;;;;;;5054082;28;20453;-66
2024/03/14 04:30:06;;;;;;;597.13;548.33;;;7.90;99.90;;;;;;5051212;28;20984;-66
2024/03/14 04:32:33;;;;;;;605.60;556.17;;;7.80;99.90;;;;;;5048599;28;20482;-66
2024/03/14 04:35:01;;;;;;;593.60;545.10;;;7.70;99.90;;;;;;5033685;28;20456;-66
2024/03/14 04:37:29;;;;;;;580.13;530.97;;;7.70;99.90;;;;;;5038128;28;20948;-66
2024/03/14 04:39:56;;;;;;;595.07;546.10;;;7.70;99.90;;;;;;5048239;28;20832;-66
2024/03/14 04:42:23;;;;;;;578.10;528.70;;;7.60;99.90;;;;;;5047087;28;20453;-66
2024/03/14 04:44:51;;;;;;;587.23;537.37;;;7.50;99.90;;;;;;5045595;28;20450;-66
2024/03/14 04:47:17;;;;;;;616.90;567.30;;;7.40;99.90;;;;;;5053380;28;20457;-66
2024/03/14 04:49:45;;;;;;;619.23;569.13;;;7.30;99.90;;;;;;5053586;28;20460;-66
2024/03/14 04:52:14;;;;;;;612.77;560.00;;;7.20;99.90;;;;;;5053730;28;20489;-66
2024/03/14 04:54:42;;;;;;;644.77;588.93;;;7.10;99.90;;;;;;5046707;28;20482;-66
2024/03/14 04:57:09;;;;;;;652.20;597.03;;;7.10;99.90;;;;;;5052956;28;20929;-66
2024/03/14 04:59:37;;;;;;;648.60;592.33;;;7.00;99.90;;;;;;5046704;28;20459;-66
2024/03/14 05:02:04;;;;;;;637.90;581.73;;;6.90;99.90;;;;;;5052505;28;20852;-66
2024/03/14 05:04:31;;;;;;;633.23;577.77;;;6.90;99.90;;;;;;5053276;28;20850;-66
2024/03/14 05:06:58;;;;;;;654.20;598.73;;;6.80;99.90;;;;;;5044535;28;20451;-66
2024/03/14 05:09:26;;;;;;;663.43;606.63;;;6.70;99.90;;;;;;5047627;28;20457;-66
2024/03/14 05:11:52;;;;;;;672.80;615.10;;;6.70;99.90;;;;;;5045056;28;20482;-66
2024/03/14 05:14:20;;;;;;;685.60;625.70;;;6.70;99.90;;;;;;5038911;28;20475;-66
2024/03/14 05:16:47;;;;;;;663.07;602.40;;;6.70;99.90;;;;;;5041249;28;20454;-65
2024/03/14 05:19:15;;;;;;;674.03;612.57;;;6.70;99.90;;;;;;5057697;28;20460;-66
2024/03/14 05:21:43;;;;;;;688.67;625.43;;;6.70;99.90;;;;;;5049383;28;20934;-66
2024/03/14 05:24:10;;;;;;;669.60;606.50;;;6.80;99.90;;;;;;5048985;28;20898;-66
2024/03/14 05:26:37;;;;;;;695.40;632.50;;;6.60;99.90;;;;;;5050155;28;20447;-66
2024/03/14 05:29:04;;;;;;;697.20;631.87;;;6.60;99.90;;;;;;5056417;28;20442;-66
2024/03/14 05:31:31;;;;;;;700.80;637.30;;;6.60;99.90;;;;;;5056992;28;20568;-66
2024/03/14 05:33:58;;;;;;;680.30;618.20;;;6.50;99.90;;;;;;5056896;28;20557;-65
2024/03/14 05:36:25;;;;;;;707.60;644.67;;;6.40;99.90;;;;;;5051275;28;20542;-66
2024/03/14 05:38:52;;;;;;;717.53;651.83;;;6.30;99.90;;;;;;5053861;28;20902;-66
2024/03/14 05:41:19;;;;;;;721.50;655.90;;;6.20;99.90;;;;;;5048402;28;20524;-66
2024/03/14 05:43:47;;;;;;;734.53;669.10;;;6.20;99.90;;;;;;5056457;28;20552;-66
2024/03/14 05:46:14;;;;;;;740.03;672.20;;;6.20;99.90;;;;;;5056351;28;20523;-66
2024/03/14 05:48:41;;;;;;;747.80;681.10;;;6.20;99.90;;;;;;5056369;28;20564;-66
2024/03/14 05:51:09;;;;;;;757.97;690.57;;;6.20;99.90;;;;;;5045934;28;20872;-66
2024/03/14 05:53:36;;;;;;;781.67;711.87;;;6.20;99.90;;;;;;5045201;28;20896;-67
2024/03/14 05:56:02;;;;;;;778.27;708.47;;;6.20;99.90;;;;;;5052700;28;20461;-66
2024/03/14 05:58:30;;;;;;;805.47;734.57;;;6.20;99.90;;;;;;5050864;28;20462;-66
2024/03/14 06:00:57;;;;;;;777.87;707.40;;;6.30;99.90;;;;;;5056514;28;20458;-66
2024/03/14 06:03:24;;;;;;;768.47;699.27;;;6.30;99.90;;;;;;5056421;28;20502;-66
2024/03/14 06:05:52;;;;;;;764.27;696.27;;;6.30;99.90;;;;;;5055647;28;20490;-67
2024/03/14 06:08:19;;;;;;;764.40;695.00;;;6.30;99.90;;;;;;5048568;28;20500;-66
2024/03/14 06:10:46;;;;;;;757.60;688.80;;;6.40;99.90;;;;;;5055749;28;20482;-66
2024/03/14 06:13:14;;;;;;;757.73;688.57;;;6.40;99.90;;;;;;5052184;28;20531;-67
2024/03/14 06:15:41;;;;;;;761.40;691.90;;;6.40;99.90;;;;;;5051859;28;20454;-66
2024/03/14 06:18:08;;;;;;;769.13;699.00;;;6.40;99.90;;;;;;5047747;28;20455;-66
2024/03/14 06:20:35;;;;;;;775.17;704.33;;;6.50;99.90;;;;;;5055883;28;20447;-66
2024/03/14 06:23:03;;;;;;;779.40;708.60;;;6.50;99.90;;;;;;5045266;28;20481;-66
2024/03/14 06:25:30;;;;;;;789.63;718.53;;;6.50;99.90;;;;;;5041909;28;20454;-66
2024/03/14 06:27:57;;;;;;;779.07;708.10;;;6.50;99.90;;;;;;5055224;28;20454;-67
2024/03/14 06:30:24;;;;;;;777.67;706.83;;;6.50;99.90;;;;;;5055408;28;20450;-66
2024/03/14 06:32:51;;;;;;;793.17;721.07;;;6.50;99.90;;;;;;5055580;28;20490;-66
2024/03/14 06:35:18;;;;;;;787.47;715.87;;;6.60;99.90;;;;;;5047537;28;20541;-66
2024/03/14 06:37:46;;;;;;;787.73;715.87;;;6.60;99.90;;;;;;5055020;28;20450;-66
2024/03/14 06:40:15;;;;;;;797.40;724.10;;;6.70;99.90;;;;;;5043690;28;20478;-66
2024/03/14 06:42:42;;;;;;;777.83;704.33;;;6.80;99.90;;;;;;5051006;28;20462;-67
2024/03/14 06:45:10;;;;;;;784.73;711.33;;;7.00;99.90;;;;;;5047146;28;20546;-66
2024/03/14 06:47:38;;;;;;;784.53;710.60;;;7.10;99.90;;;;;;5055265;28;20533;-66
2024/03/14 06:50:09;;;;;;;784.20;710.13;;;7.30;99.90;;;;;;5045000;28;20850;-66
2024/03/14 06:52:37;;;;;;;777.17;704.43;;;7.50;99.90;;;;;;5044105;28;20487;-66
2024/03/14 06:55:04;;;;;;;775.57;702.90;;;7.70;99.90;;;;;;5046383;28;20832;-66
2024/03/14 06:57:31;;;;;;;770.70;699.40;;;7.90;99.90;;;;;;5054786;28;21011;-66
2024/03/14 06:59:58;;;;;;;768.07;698.50;;;8.00;99.90;;;;;;5054956;28;20539;-67
2024/03/14 07:02:25;;;;;;;779.83;709.67;;;8.20;99.90;;;;;;5054787;28;20456;-67
2024/03/14 07:04:52;;;;;;;771.23;701.30;;;8.40;99.90;;;;;;5054891;28;20460;-66
2024/03/14 07:07:20;;;;;;;777.40;708.30;;;8.60;99.90;;;;;;5054512;28;20938;-66
2024/03/14 07:09:48;;;;;;;782.17;713.37;;;8.70;99.90;;;;;;5046729;28;20447;-66
2024/03/14 07:12:15;;;;;;;770.60;703.60;;;8.90;99.90;;;;;;5035099;28;20871;-67
2024/03/14 07:14:42;;;;;;;754.13;689.07;;;9.00;99.90;;;;;;5050415;28;20448;-66
2024/03/14 07:17:09;;;;;;;758.73;695.50;;;9.10;99.90;;;;;;5051418;28;20451;-66
2024/03/14 07:19:36;;;;;;;754.37;692.67;;;9.20;99.90;;;;;;5049707;28;20583;-66
2024/03/14 07:22:03;;;;;;;759.53;699.78;;;9.30;99.90;;;;;;5043989;28;20613;-67
2024/03/14 07:24:30;;;;;;;754.15;701.08;;;9.30;99.90;;;;;;5041982;28;20466;-66
2024/03/14 07:26:58;;;;;;;755.20;704.60;;;9.40;99.90;;;;;;5042632;28;20524;-66
2024/03/14 07:29:25;;;;;;;749.07;699.20;;;9.50;99.90;;;;;;5048152;28;20458;-67
2024/03/14 07:31:53;;;;;;;754.37;704.53;;;9.60;99.90;;;;;;5054318;28;20579;-67
2024/03/14 07:34:21;;;;;;;758.17;709.47;;;9.70;99.90;;;;;;5054339;28;20466;-67
2024/03/14 07:36:48;;;;;;;724.70;680.30;;;9.90;99.90;;;;;;5054336;28;20465;-65
2024/03/14 07:39:15;;;;;;;684.77;646.00;;;10.10;99.90;;;;;;5053743;28;21016;-66
2024/03/14 07:41:42;;;;;;;648.20;614.20;;;10.20;99.90;;;;;;5046929;28;20462;-67
2024/03/14 07:44:09;;;;;;;596.70;566.67;;;10.30;99.90;;;;;;5041941;28;20471;-66
2024/03/14 07:46:36;;;;;;;521.70;496.80;;;10.40;99.90;;;;;;5040733;28;20450;-66
2024/03/14 07:49:04;;;;;;;438.27;418.80;;;10.50;99.90;;;;;;5043595;28;20450;-66
2024/03/14 07:51:31;;;;;;;382.87;366.57;;;10.60;99.90;;;;;;5048542;28;20951;-66
2024/03/14 07:53:58;;;;;;;315.37;302.27;;;10.70;99.90;;;;;;5054170;28;20505;-67
2024/03/14 07:56:25;;;;;;;249.27;239.83;;;10.80;99.90;;;;;;5036950;28;20458;-66
2024/03/14 07:58:52;;;;;;;225.77;217.27;;;10.80;99.90;;;;;;5042020;28;20980;-67
2024/03/14 08:01:19;;;;;;;218.93;210.93;;;10.90;99.90;;;;;;5046907;28;20456;-66
2024/03/14 08:03:47;;;;;;;173.13;166.80;;;10.90;99.90;;;;;;5045974;28;20851;-66
2024/03/14 08:06:18;;;;;;;154.93;149.27;;;10.90;99.90;;;;;;5050350;28;20496;-67
2024/03/14 08:08:45;;;;;;;148.40;142.93;;;11.00;99.90;;;;;;5039110;28;20514;-66
2024/03/14 08:11:12;;;;;;;146.10;140.70;;;11.10;99.90;;;;;;5050347;28;20446;-66
2024/03/14 08:13:39;;;;;;;135.87;130.73;;;11.20;99.90;;;;;;5041264;28;20488;-66
2024/03/14 08:16:14;;;;;;;143.17;137.70;;;11.30;99.90;;;;;;5045442;28;20454;-67
2024/03/14 08:18:41;;;;;;;126.70;121.40;;;11.40;99.90;;;;;;5035313;28;20447;-66
2024/03/14 08:21:10;;;;;;;110.90;106.70;;;11.50;99.90;;;;;;5053737;28;20446;-67
2024/03/14 08:23:36;;;;;;;78.47;75.03;;;11.50;99.90;;;;;;5047467;28;20498;-66
2024/03/14 08:26:03;;;;;;;65.47;62.60;;;11.50;99.90;;;;;;5052340;28;21047;-66
2024/03/14 08:28:30;;;;;;;60.93;58.10;;;11.60;99.90;;;;;;5036086;28;20452;-66
2024/03/14 08:30:59;;;;;;;64.47;61.70;;;11.70;99.90;;;;;;5033287;28;20460;-67
2024/03/14 08:33:26;;;;;;;59.33;56.63;;;11.80;99.90;;;;;;5053843;28;20482;-67
2024/03/14 08:35:53;;;;;;;61.30;58.70;;;11.90;99.90;;;;;;5052793;28;20529;-66
2024/03/14 08:38:19;;;;;;;60.30;57.67;;;12.00;99.90;;;;;;5038352;28;20454;-66
2024/03/14 08:40:47;;;;;;;42.53;40.33;;;12.10;98.50;;;;;;5033989;28;20455;-66
2024/03/14 08:43:14;;;;;;;31.97;29.93;;;12.10;98.50;;;;;;5022462;28;20967;-67
2024/03/14 08:45:40;;;;;;;34.73;32.90;;;12.10;98.50;;;;;;5053447;28;20450;-66
2024/03/14 08:48:08;;;;;;;29.40;27.83;;;12.20;98.50;;;;;;5062279;28;20475;-66
2024/03/14 08:50:35;;;;;;;19.13;17.93;;;12.40;98.60;;;;;;5062074;28;20453;-66
2024/03/14 08:53:02;;;;;;;17.27;16.03;;;12.70;92.80;;;;;;5055607;28;20570;-67
2024/03/14 08:55:33;;;;;;;13.43;12.43;;;13.00;92.20;;;;;;5045895;28;20457;-65
2024/03/14 08:58:03;;;;;;;11.10;5.93;;;13.10;92.20;;;;;;5037780;28;20466;-64
2024/03/14 09:00:31;;;;;;;9.50;5.90;;;13.60;92.40;;;;;;5051792;28;20453;-64
2024/03/14 09:02:59;;;;;;;11.63;5.60;;;14.00;91.10;;;;;;5056115;28;20556;-65
2024/03/14 09:05:27;;;;;;;9.50;5.07;;;14.50;81.10;;;;;;5042122;28;20546;-64
2024/03/14 09:07:54;;;;;;;6.40;4.07;;;14.80;81.40;;;;;;5043647;28;20475;-65
2024/03/14 09:10:25;;;;;;;7.00;4.10;;;15.20;71.50;;;;;;5040873;28;20448;-65
2024/03/14 09:12:52;;;;;;;7.17;4.57;;;15.40;74.00;;;;;;5054818;28;20482;-65
2024/03/14 09:15:20;;;;;;;5.33;2.90;;;15.50;66.00;;;;;;5049181;28;20446;-65
2024/03/14 09:17:47;;;;;;;5.87;3.30;;;15.60;66.00;;;;;;5037092;28;20455;-65
2024/03/14 09:20:16;;;;;;;6.00;4.07;;;15.50;65.90;;;;;;5029025;28;20448;-64
2024/03/14 09:22:43;;;;;;;6.07;3.37;;;15.50;66.00;;;;;;5061482;28;20983;-64
2024/03/14 09:25:12;;;;;;;6.13;3.50;;;15.90;66.40;;;;;;5056980;28;20454;-65
2024/03/14 09:27:39;;;;;;;8.20;3.40;;;16.30;58.40;;;;;;5050045;28;20459;-65
2024/03/14 09:30:08;;;;;;;5.60;3.03;;;16.30;49.90;;;;;;5046755;28;20455;-65
2024/03/14 09:32:35;;;;;;;6.10;3.40;;;16.60;53.60;;;;;;5057149;28;20535;-64
2024/03/14 09:35:05;;;;;;;7.60;3.30;;;16.70;50.10;;;;;;5046358;28;20443;-65
2024/03/14 09:37:32;;;;;;;6.30;3.33;;;16.70;51.00;;;;;;5051057;28;20965;-65
2024/03/14 09:39:59;;;;;;;7.50;3.70;;;16.70;50.10;;;;;;5048713;28;20457;-65
2024/03/14 09:42:27;;;;;;;7.63;3.70;;;16.30;40.90;;;;;;5051568;28;20452;-64
2024/03/14 09:44:54;;;;;;;6.30;3.63;;;16.50;42.30;;;;;;5043072;28;20487;-65
2024/03/14 09:47:22;;;;;;;8.43;3.90;;;17.00;43.10;;;;;;5051873;28;20965;-65
2024/03/14 09:49:51;;;;;;;7.97;4.30;;;17.40;41.90;;;;;;5053146;28;20448;-65
2024/03/14 09:52:18;;;;;;;10.07;4.83;;;17.80;38.30;;;;;;5052660;28;20486;-65
2024/03/14 09:54:45;;;;;;;10.60;5.47;;;18.00;34.30;;;;;;5044686;28;20457;-64
2024/03/14 09:57:12;;;;;;;9.47;5.43;;;18.10;33.50;;;;;;5056193;28;20454;-65
2024/03/14 09:59:39;;;;;;;9.13;5.53;;;17.60;33.10;;;;;;5048188;28;20489;-65
2024/03/14 10:02:06;;;;;;;8.10;5.13;;;17.40;32.80;;;;;;5038204;28;20940;-65
2024/03/14 10:04:33;;;;;;;8.43;4.37;;;17.20;32.70;;;;;;5047955;28;20482;-64
2024/03/14 10:07:00;;;;;;;9.00;5.40;;;17.10;32.60;;;;;;5054282;28;20457;-65
2024/03/14 10:09:29;;;;;;;11.00;4.77;;;17.10;33.70;;;;;;5041078;28;20448;-65
2024/03/14 10:12:01;;;;;;;9.13;5.17;;;17.20;32.70;;;;;;5043316;28;20544;-65
2024/03/14 10:14:28;;;;;;;7.67;4.37;;;17.50;32.90;;;;;;5056578;28;20476;-65
2024/03/14 10:16:58;;;;;;;10.20;4.17;;;18.00;33.40;;;;;;5055807;28;20840;-65
2024/03/14 10:19:30;;;;;;;7.73;4.50;;;18.00;25.60;;;;;;5051221;28;20450;-66
2024/03/14 10:21:57;;;;;;;7.73;4.17;;;18.70;26.10;;;;;;5043648;28;20455;-65
2024/03/14 10:24:27;;;;;;;8.23;3.80;;;18.90;26.10;;;;;;5055815;28;20973;-65
2024/03/14 10:26:54;;;;;;;8.20;3.73;;;18.80;22.90;;;;;;5055937;28;20894;-65
2024/03/14 10:29:22;;;;;;;10.97;5.07;;;19.20;19.20;;;;;;5051135;28;20447;-65
2024/03/14 10:31:49;;;;;;;8.23;5.10;;;19.40;19.30;;;;;;5052812;28;20481;-65
2024/03/14 10:34:16;;;;;;;8.10;4.70;;;19.20;19.10;;;;;;5054024;28;20527;-65
2024/03/14 10:36:43;;;;;;;7.03;3.90;;;19.00;19.00;;;;;;5054789;28;20943;-65
2024/03/14 10:39:13;;;;;;;8.40;3.67;;;18.90;18.90;;;;;;5055012;28;20472;-63
2024/03/14 10:41:41;;;;;;;11.70;4.30;;;18.10;18.30;;;;;;5055411;28;20450;-65
2024/03/14 10:44:08;;;;;;;10.80;4.13;;;17.60;18.00;;;;;;5055166;28;20867;-66
2024/03/14 10:46:37;;;;;;;7.73;4.30;;;17.50;17.90;;;;;;5046981;28;20537;-64
2024/03/14 10:49:04;;;;;;;10.13;5.20;;;17.70;18.10;;;;;;5045183;28;20447;-64
2024/03/14 10:51:31;;;;;;;8.03;4.57;;;18.10;18.30;;;;;;5049726;28;20503;-64
2024/03/14 10:53:58;;;;;;;8.03;5.10;;;18.00;18.30;;;;;;5046576;28;20483;-66
2024/03/14 10:56:25;;;;;;;8.23;4.00;;;18.20;18.40;;;;;;5048399;28;20517;-65
2024/03/14 10:58:54;;;;;;;9.17;5.10;;;18.70;18.80;;;;;;5036335;28;20828;-67
2024/03/14 11:01:21;;;;;;;8.00;4.50;;;18.50;18.70;;;;;;5051606;28;20561;-66
2024/03/14 11:03:48;;;;;;;7.97;4.67;;;18.00;18.30;;;;;;5051957;28;20473;-65
2024/03/14 11:06:18;;;;;;;6.70;3.70;;;18.30;18.50;;;;;;5050826;28;20550;-66
2024/03/14 11:08:45;;;;;;;6.70;3.80;;;19.10;19.10;;;;;;5051269;28;20465;-64
2024/03/14 11:11:13;;;;;;;10.50;4.50;;;19.10;11.60;;;;;;5038085;28;20465;-64
2024/03/14 11:13:43;;;;;;;6.40;3.33;;;19.50;11.90;;;;;;5054152;28;20509;-66
2024/03/14 11:16:10;;;;;;;7.47;3.30;;;19.20;11.60;;;;;;5036752;28;20441;-65
2024/03/14 11:18:37;;;;;;;6.40;3.00;;;18.50;10.90;;;;;;5047981;28;20454;-65
2024/03/14 11:21:04;;;;;;;5.90;2.90;;;18.60;16.80;;;;;;5044085;28;20455;-65
2024/03/14 11:23:31;;;;;;;7.23;3.30;;;18.80;11.40;;;;;;5048327;28;20502;-65
2024/03/14 11:25:57;;;;;;;7.20;3.43;;;18.60;11.20;;;;;;5052350;28;20446;-65
2024/03/14 11:28:25;;;;;;;6.63;3.10;;;18.90;11.40;;;;;;5038013;28;20488;-64
2024/03/14 11:30:52;;;;;;;6.73;3.40;;;18.80;11.90;;;;;;5051359;28;20447;-65
2024/03/14 11:33:19;;;;;;;5.27;2.63;;;19.30;11.70;;;;;;5047322;28;20938;-65
2024/03/14 11:35:47;;;;;;;6.83;3.17;;;19.20;4.20;;;;;;5054574;28;20450;-65
2024/03/14 11:38:24;;;;;;;7.50;2.70;;;20.00;12.10;;;;;;5054331;28;20446;-65
2024/03/14 11:40:53;;;;;;;6.10;2.40;;;20.30;5.50;;;;;;5046202;28;20561;-64
2024/03/14 11:43:21;;;;;;;8.23;3.27;;;21.00;5.20;;;;;;5038375;28;20463;-65
2024/03/14 11:45:49;;;;;;;6.20;2.50;;;20.60;1.00;;;;;;5042490;28;20457;-65
2024/03/14 11:48:19;;;;;;;5.40;3.03;;;21.20;4.50;;;;;;5039228;28;20450;-65
2024/03/14 11:50:47;;;;;;;5.80;3.00;;;21.60;1.00;;;;;;5046278;28;20961;-65
2024/03/14 11:53:14;;;;;;;7.00;2.97;;;21.50;1.00;;;;;;5042606;28;20486;-61
2024/03/14 11:55:43;;;;;;;6.33;3.07;;;22.00;1.00;;;;;;5049737;28;20476;-63
2024/03/14 11:58:14;;;;;;;6.83;3.00;;;21.70;1.00;;;;;;5054543;28;20454;-63
2024/03/14 12:00:41;;;;;;;7.45;3.10;;;21.50;1.00;;;;;;5053869;28;20449;-64
2024/03/14 12:03:09;;;;;;;5.20;2.40;;;21.10;1.00;;;;;;5053709;28;20254;-64
2024/03/14 12:05:41;;;;;;;7.83;3.13;;;21.30;1.00;;;;;;5054290;28;20454;-63
2024/03/14 12:08:10;;;;;;;8.43;3.10;;;20.90;1.00;;;;;;5055218;28;20466;-64
2024/03/14 12:10:38;;;;;;;8.17;3.30;;;21.30;1.00;;;;;;5054278;28;20831;-64
2024/03/14 12:13:05;;;;;;;8.07;3.47;;;21.50;1.00;;;;;;5053925;28;20482;-64
2024/03/14 12:15:35;;;;;;;8.03;3.40;;;22.40;1.00;;;;;;5046098;28;20503;-64
2024/03/14 12:18:02;;;;;;;8.07;2.93;;;22.80;1.00;;;;;;5052973;28;20830;-64
2024/03/14 12:20:30;;;;;;;6.00;3.10;;;22.10;1.00;;;;;;5048990;28;20496;-63
2024/03/14 12:22:57;;;;;;;6.90;2.60;;;21.80;1.00;;;;;;5044944;28;20478;-64
2024/03/14 12:25:25;;;;;;;6.40;3.07;;;21.80;1.00;;;;;;5033697;28;20502;-64
2024/03/14 12:27:52;;;;;;;6.80;2.60;;;22.20;1.00;;;;;;5035339;28;20459;-63